createdAt,value
2023-05-08T00:00:06.745Z,101595.75
2023-05-08T00:02:37.129Z,101591.44
2023-05-08T00:05:06.955Z,101600.34
2023-05-08T00:07:35.681Z,101599.16
2023-05-08T00:10:04.768Z,101602.81
2023-05-08T00:12:33.740Z,101596.97
2023-05-08T00:15:02.910Z,101599.88
2023-05-08T00:17:31.876Z,101601.81
2023-05-08T00:20:03.060Z,101598.34
2023-05-08T00:22:31.555Z,101597.81
2023-05-08T00:25:00.443Z,101597.25
2023-05-08T00:27:29.394Z,101607.00
2023-05-08T00:29:58.705Z,101606.13
2023-05-08T00:32:27.806Z,101608.69
2023-05-08T00:34:56.466Z,101610.28
2023-05-08T00:37:27.127Z,101609.25
2023-05-08T00:39:56.108Z,101612.09
2023-05-08T00:42:24.968Z,101614.63
2023-05-08T00:44:54.081Z,101615.66
2023-05-08T00:47:23.633Z,101613.09
2023-05-08T00:49:52.292Z,101615.81
2023-05-08T00:52:21.777Z,101616.75
2023-05-08T00:54:52.251Z,101626.50
2023-05-08T00:57:20.811Z,101622.78
2023-05-08T00:59:51.680Z,101627.50
2023-05-08T01:02:21.093Z,101630.41
2023-05-08T01:04:50.160Z,101636.84
2023-05-08T01:07:19.633Z,101644.97
2023-05-08T01:09:48.462Z,101643.53
2023-05-08T01:12:22.793Z,101637.41
2023-05-08T01:15:01.310Z,101646.81
2023-05-08T01:17:39.929Z,101653.31
2023-05-08T01:20:19.620Z,101650.69
2023-05-08T01:23:30.187Z,101645.44
2023-05-08T01:26:19.069Z,101652.66
2023-05-08T01:29:17.537Z,101659.00
2023-05-08T01:32:03.607Z,101656.69
2023-05-08T01:34:33.967Z,101665.75
2023-05-08T01:37:03.720Z,101655.09
2023-05-08T01:39:38.400Z,101654.16
2023-05-08T01:42:19.944Z,101656.00
2023-05-08T01:45:05.779Z,101657.94
2023-05-08T01:47:38.803Z,101662.19
2023-05-08T01:50:14.188Z,101653.44
2023-05-08T01:52:47.073Z,101663.28
2023-05-08T01:55:21.897Z,101657.88
2023-05-08T01:57:53.150Z,101660.56
2023-05-08T02:00:23.706Z,101669.53
2023-05-08T02:02:54.979Z,101670.50
2023-05-08T02:05:25.207Z,101669.63
2023-05-08T02:07:54.846Z,101661.13
2023-05-08T02:10:26.009Z,101666.16
2023-05-08T02:12:56.109Z,101667.47
2023-05-08T02:15:25.197Z,101662.97
2023-05-08T02:17:55.971Z,101670.25
2023-05-08T02:20:24.878Z,101669.31
2023-05-08T02:22:53.832Z,101672.25
2023-05-08T02:25:23.713Z,101677.44
2023-05-08T02:27:55.089Z,101673.94
2023-05-08T02:30:26.375Z,101666.84
2023-05-08T02:33:00.291Z,101682.44
2023-05-08T02:35:31.629Z,101671.78
2023-05-08T02:38:00.910Z,101669.31
2023-05-08T02:40:30.923Z,101671.63
2023-05-08T02:43:00.235Z,101673.19
2023-05-08T02:45:34.655Z,101675.41
2023-05-08T02:48:12.147Z,101671.00
2023-05-08T02:50:47.197Z,101665.59
2023-05-08T02:53:22.034Z,101668.13
2023-05-08T02:55:52.220Z,101666.44
2023-05-08T02:58:26.121Z,101671.69
2023-05-08T03:00:59.566Z,101670.53
2023-05-08T03:03:35.580Z,101673.94
2023-05-08T03:06:05.321Z,101679.56
2023-05-08T03:08:35.995Z,101679.34
2023-05-08T03:11:09.488Z,101681.03
2023-05-08T03:13:40.457Z,101678.25
2023-05-08T03:16:13.592Z,101679.72
2023-05-08T03:18:48.861Z,101687.34
2023-05-08T03:21:19.920Z,101687.00
2023-05-08T03:23:49.879Z,101694.84
2023-05-08T03:26:21.366Z,101697.97
2023-05-08T03:28:51.882Z,101694.47
2023-05-08T03:31:23.917Z,101691.91
2023-05-08T03:33:56.137Z,101694.41
2023-05-08T03:36:27.196Z,101697.63
2023-05-08T03:38:56.822Z,101710.19
2023-05-08T03:41:27.005Z,101700.41
2023-05-08T03:43:56.698Z,101693.78
2023-05-08T03:46:25.914Z,101701.34
2023-05-08T03:48:56.432Z,101691.03
2023-05-08T03:51:25.517Z,101691.53
2023-05-08T03:53:54.439Z,101697.44
2023-05-08T03:56:25.857Z,101694.84
2023-05-08T03:58:58.550Z,101697.44
2023-05-08T04:01:31.135Z,101694.06
2023-05-08T04:04:07.972Z,101694.06
2023-05-08T04:06:49.533Z,101696.63
2023-05-08T04:09:27.863Z,101702.66
2023-05-08T04:12:03.934Z,101706.16
2023-05-08T04:14:39.083Z,101716.59
2023-05-08T04:17:11.339Z,101713.06
2023-05-08T04:19:47.703Z,101722.19
2023-05-08T04:22:16.808Z,101728.66
2023-05-08T04:24:47.127Z,101712.97
2023-05-08T04:27:15.794Z,101722.97
2023-05-08T04:29:44.784Z,101722.59
2023-05-08T04:32:14.095Z,101732.94
2023-05-08T04:34:44.592Z,101734.22
2023-05-08T04:37:23.069Z,101733.66
2023-05-08T04:39:52.488Z,101734.66
2023-05-08T04:42:22.709Z,101735.72
2023-05-08T04:44:51.756Z,101743.53
2023-05-08T04:47:21.182Z,101741.31
2023-05-08T04:49:51.326Z,101747.25
2023-05-08T04:52:19.945Z,101738.78
2023-05-08T04:54:48.848Z,101746.19
2023-05-08T04:57:17.938Z,101747.34
2023-05-08T04:59:47.031Z,101748.38
2023-05-08T05:02:16.375Z,101745.59
2023-05-08T05:04:45.119Z,101747.53
2023-05-08T05:07:15.645Z,101750.47
2023-05-08T05:09:44.630Z,101756.69
2023-05-08T05:12:13.597Z,101756.03
2023-05-08T05:14:42.729Z,101762.63
2023-05-08T05:17:11.775Z,101753.72
2023-05-08T05:19:40.482Z,101755.63
2023-05-08T05:22:09.664Z,101762.19
2023-05-08T05:24:41.083Z,101764.22
2023-05-08T05:27:11.745Z,101761.44
2023-05-08T05:29:40.973Z,101764.28
2023-05-08T05:32:11.853Z,101769.69
2023-05-08T05:34:41.933Z,101764.19
2023-05-08T05:37:11.363Z,101763.81
2023-05-08T05:39:41.797Z,101769.63
2023-05-08T05:42:13.547Z,101770.38
2023-05-08T05:44:43.030Z,101762.97
2023-05-08T05:47:12.098Z,101776.22
2023-05-08T05:49:43.226Z,101773.34
2023-05-08T05:52:12.805Z,101778.59
2023-05-08T05:54:43.244Z,101782.19
2023-05-08T05:57:13.318Z,101777.53
2023-05-08T05:59:42.685Z,101774.78
2023-05-08T06:02:16.612Z,101768.94
2023-05-08T06:04:45.626Z,101777.78
2023-05-08T06:07:14.811Z,101771.75
2023-05-08T06:09:45.448Z,101776.91
2023-05-08T06:12:14.456Z,101784.53
2023-05-08T06:14:43.437Z,101782.81
2023-05-08T06:17:12.431Z,101784.28
2023-05-08T06:19:41.348Z,101782.81
2023-05-08T06:22:10.317Z,101786.06
2023-05-08T06:24:39.365Z,101781.47
2023-05-08T06:27:09.632Z,101782.84
2023-05-08T06:29:38.601Z,101774.91
2023-05-08T06:32:07.894Z,101779.13
2023-05-08T06:34:36.421Z,101776.75
2023-05-08T06:37:05.404Z,101778.19
2023-05-08T06:39:34.364Z,101778.50
2023-05-08T06:42:03.712Z,101779.88
2023-05-08T06:44:34.669Z,101776.97
2023-05-08T06:47:03.567Z,101775.03
2023-05-08T06:49:32.260Z,101773.09
2023-05-08T06:52:01.347Z,101768.84
2023-05-08T06:54:30.224Z,101777.50
2023-05-08T06:57:00.603Z,101776.00
2023-05-08T06:59:29.622Z,101776.16
2023-05-08T07:01:59.965Z,101776.72
2023-05-08T07:04:29.612Z,101776.09
2023-05-08T07:07:00.603Z,101770.09
2023-05-08T07:09:29.833Z,101779.19
2023-05-08T07:11:58.680Z,101778.41
2023-05-08T07:14:28.086Z,101778.16
2023-05-08T07:16:56.616Z,101786.63
2023-05-08T07:19:26.963Z,101790.19
2023-05-08T07:21:55.649Z,101789.00
2023-05-08T07:24:25.093Z,101785.69
2023-05-08T07:26:54.105Z,101785.16
2023-05-08T07:29:23.123Z,101778.88
2023-05-08T07:31:52.217Z,101790.50
2023-05-08T07:34:21.258Z,101780.59
2023-05-08T07:36:53.958Z,101783.03
2023-05-08T07:39:22.891Z,101787.56
2023-05-08T07:41:51.894Z,101785.97
2023-05-08T07:44:21.676Z,101786.00
2023-05-08T07:46:50.336Z,101773.59
2023-05-08T07:49:19.354Z,101785.84
2023-05-08T07:51:48.289Z,101775.59
2023-05-08T07:54:18.685Z,101781.31
2023-05-08T07:56:47.351Z,101786.59
2023-05-08T07:59:20.325Z,101779.38
2023-05-08T08:01:52.988Z,101772.97
2023-05-08T08:04:22.096Z,101780.09
2023-05-08T08:06:50.986Z,101786.00
2023-05-08T08:09:22.396Z,101777.97
2023-05-08T08:11:51.145Z,101780.69
2023-05-08T08:14:20.031Z,101782.34
2023-05-08T08:16:48.618Z,101778.91
2023-05-08T08:19:17.621Z,101779.66
2023-05-08T08:21:47.494Z,101776.09
2023-05-08T08:24:16.428Z,101765.44
2023-05-08T08:26:46.814Z,101766.00
2023-05-08T08:29:15.721Z,101759.22
2023-05-08T08:31:44.249Z,101770.63
2023-05-08T08:34:13.727Z,101761.84
2023-05-08T08:36:42.630Z,101770.22
2023-05-08T08:39:13.429Z,101759.91
2023-05-08T08:41:43.610Z,101758.84
2023-05-08T08:44:14.047Z,101758.81
2023-05-08T08:46:51.838Z,101754.56
2023-05-08T08:49:23.940Z,101748.13
2023-05-08T08:51:55.074Z,101749.91
2023-05-08T08:54:25.771Z,101746.34
2023-05-08T08:56:55.240Z,101750.09
2023-05-08T08:59:26.887Z,101746.59
2023-05-08T09:01:58.017Z,101743.59
2023-05-08T09:04:27.637Z,101739.25
2023-05-08T09:06:58.290Z,101748.25
2023-05-08T09:09:28.920Z,101751.53
2023-05-08T09:11:58.012Z,101748.81
2023-05-08T09:14:28.706Z,101747.28
2023-05-08T09:16:56.971Z,101741.94
2023-05-08T09:19:29.020Z,101734.44
2023-05-08T09:22:00.932Z,101733.63
2023-05-08T09:24:57.936Z,101738.91
2023-05-08T09:27:28.350Z,101737.59
2023-05-08T09:30:02.971Z,101736.78
2023-05-08T09:32:32.558Z,101729.91
2023-05-08T09:35:02.159Z,101730.50
2023-05-08T09:37:31.552Z,101737.16
2023-05-08T09:40:17.252Z,101735.31
2023-05-08T09:42:46.381Z,101730.25
2023-05-08T09:45:28.579Z,101728.25
2023-05-08T09:47:57.717Z,101712.47
2023-05-08T09:50:27.837Z,101715.56
2023-05-08T09:52:56.860Z,101712.03
2023-05-08T09:55:25.877Z,101710.19
2023-05-08T09:57:57.326Z,101713.06
2023-05-08T10:00:31.236Z,101717.88
2023-05-08T10:03:02.272Z,101707.75
2023-05-08T10:05:33.104Z,101715.59
2023-05-08T10:08:20.216Z,101703.75
2023-05-08T10:10:49.084Z,101703.59
2023-05-08T10:13:18.075Z,101696.06
2023-05-08T10:15:53.637Z,101690.34
2023-05-08T10:18:23.989Z,101696.31
2023-05-08T10:20:54.922Z,101693.47
2023-05-08T10:23:24.292Z,101681.88
2023-05-08T10:25:57.891Z,101671.84
2023-05-08T10:28:42.048Z,101680.63
2023-05-08T10:31:14.651Z,101683.22
2023-05-08T10:33:47.038Z,101669.56
2023-05-08T10:36:16.251Z,101668.66
2023-05-08T10:38:45.336Z,101677.53
2023-05-08T10:41:15.050Z,101673.03
2023-05-08T10:43:44.374Z,101670.53
2023-05-08T10:46:23.184Z,101669.13
2023-05-08T10:48:57.986Z,101672.91
2023-05-08T10:51:36.467Z,101671.31
2023-05-08T10:54:10.314Z,101665.09
2023-05-08T10:56:39.630Z,101676.34
2023-05-08T10:59:08.614Z,101676.91
2023-05-08T11:01:40.550Z,101680.97
2023-05-08T11:04:21.648Z,101659.94
2023-05-08T11:06:53.245Z,101657.63
2023-05-08T11:09:25.185Z,101662.41
2023-05-08T11:12:07.340Z,101667.00
2023-05-08T11:14:39.558Z,101670.59
2023-05-08T11:17:10.911Z,101664.47
2023-05-08T11:19:40.112Z,101659.47
2023-05-08T11:22:16.942Z,101657.69
2023-05-08T11:24:51.111Z,101647.75
2023-05-08T11:27:20.342Z,101645.94
2023-05-08T11:30:34.987Z,101649.25
2023-05-08T11:33:32.418Z,101646.56
2023-05-08T11:36:02.568Z,101642.91
2023-05-08T11:38:34.299Z,101640.00
2023-05-08T11:41:05.467Z,101641.81
2023-05-08T11:44:00.928Z,101643.19
2023-05-08T11:46:40.704Z,101642.34
2023-05-08T11:49:16.745Z,101638.72
2023-05-08T11:51:47.769Z,101638.75
2023-05-08T11:54:19.329Z,101645.59
2023-05-08T11:56:49.335Z,101642.16
2023-05-08T11:59:18.153Z,101637.38
2023-05-08T12:02:06.769Z,101649.47
2023-05-08T12:04:47.178Z,101641.25
2023-05-08T12:07:17.337Z,101636.72
2023-05-08T12:09:47.502Z,101624.81
2023-05-08T12:12:16.218Z,101626.28
2023-05-08T12:14:45.303Z,101627.97
2023-05-08T12:17:19.006Z,101620.94
2023-05-08T12:19:49.824Z,101609.91
2023-05-08T12:22:18.900Z,101608.19
2023-05-08T12:24:48.168Z,101608.53
2023-05-08T12:27:17.166Z,101613.81
2023-05-08T12:29:46.862Z,101617.91
2023-05-08T12:32:15.665Z,101617.88
2023-05-08T12:34:44.260Z,101608.25
2023-05-08T12:37:25.054Z,101600.88
2023-05-08T12:39:54.122Z,101594.53
2023-05-08T12:42:23.106Z,101602.38
2023-05-08T12:44:52.729Z,101593.91
2023-05-08T12:47:21.974Z,101606.97
2023-05-08T12:49:51.138Z,101596.66
2023-05-08T12:52:22.748Z,101592.72
2023-05-08T12:54:51.679Z,101592.72
2023-05-08T12:57:22.763Z,101593.66
2023-05-08T12:59:51.972Z,101586.75
2023-05-08T13:02:23.864Z,101589.13
2023-05-08T13:04:56.118Z,101586.13
2023-05-08T13:07:33.081Z,101576.34
2023-05-08T13:10:04.961Z,101580.53
2023-05-08T13:12:34.087Z,101575.06
2023-05-08T13:15:04.965Z,101576.03
2023-05-08T13:17:34.144Z,101569.75
2023-05-08T13:20:05.897Z,101572.25
2023-05-08T13:22:36.289Z,101575.16
2023-05-08T13:25:06.022Z,101566.19
2023-05-08T13:27:35.160Z,101568.22
2023-05-08T13:30:04.058Z,101572.81
2023-05-08T13:32:33.264Z,101568.94
2023-05-08T13:35:02.160Z,101564.94
2023-05-08T13:37:30.710Z,101558.53
2023-05-08T13:40:01.085Z,101556.81
2023-05-08T13:42:30.198Z,101549.44
2023-05-08T13:44:59.159Z,101547.09
2023-05-08T13:47:28.169Z,101548.06
2023-05-08T13:49:56.749Z,101548.13
2023-05-08T13:52:25.736Z,101538.75
2023-05-08T13:54:54.670Z,101545.06
2023-05-08T13:57:25.133Z,101546.50
2023-05-08T13:59:54.159Z,101547.56
2023-05-08T14:02:23.342Z,101540.13
2023-05-08T14:04:52.083Z,101542.13
2023-05-08T14:07:21.132Z,101540.84
2023-05-08T14:09:50.221Z,101533.03
2023-05-08T14:12:19.104Z,101536.16
2023-05-08T14:14:49.624Z,101534.91
2023-05-08T14:17:22.547Z,101537.75
2023-05-08T14:19:51.146Z,101532.84
2023-05-08T14:22:20.197Z,101528.84
2023-05-08T14:24:49.273Z,101532.41
2023-05-08T14:27:18.118Z,101536.44
2023-05-08T14:29:47.107Z,101532.47
2023-05-08T14:32:17.570Z,101536.56
2023-05-08T14:34:45.852Z,101530.72
2023-05-08T14:37:14.726Z,101534.69
2023-05-08T14:39:43.869Z,101536.53
2023-05-08T14:44:45.080Z,101540.00
2023-05-08T14:47:14.046Z,101536.19
2023-05-08T14:49:44.075Z,101529.50
2023-05-08T14:52:13.076Z,101535.44
2023-05-08T14:54:42.247Z,101527.88
2023-05-08T14:57:11.337Z,101536.28
2023-05-08T14:59:49.074Z,101527.66
2023-05-08T15:02:21.347Z,101523.53
2023-05-08T15:04:51.264Z,101523.91
2023-05-08T15:07:20.104Z,101530.47
2023-05-08T15:09:49.216Z,101529.63
2023-05-08T15:12:18.205Z,101537.00
2023-05-08T15:14:47.975Z,101533.69
2023-05-08T15:17:16.843Z,101532.53
2023-05-08T15:19:45.851Z,101536.81
2023-05-08T15:22:17.908Z,101543.50
2023-05-08T15:24:46.830Z,101538.69
2023-05-08T15:27:15.890Z,101539.78
2023-05-08T15:29:44.914Z,101541.19
2023-05-08T15:32:14.017Z,101549.00
2023-05-08T15:34:42.746Z,101531.16
2023-05-08T15:37:11.822Z,101539.59
2023-05-08T15:39:43.348Z,101528.53
2023-05-08T15:42:12.434Z,101526.50
2023-05-08T15:44:54.763Z,101516.94
2023-05-08T15:47:24.303Z,101511.72
2023-05-08T15:49:52.911Z,101512.28
2023-05-08T15:52:22.855Z,101509.75
2023-05-08T15:54:53.438Z,101507.50
2023-05-08T15:57:22.624Z,101503.34
2023-05-08T15:59:51.495Z,101505.19
2023-05-08T16:02:20.526Z,101507.06
2023-05-08T16:04:49.177Z,101508.38
2023-05-08T16:07:18.118Z,101501.97
2023-05-08T16:09:47.031Z,101501.88
2023-05-08T16:12:19.841Z,101507.13
2023-05-08T16:14:48.853Z,101508.03
2023-05-08T16:17:17.916Z,101495.81
2023-05-08T16:19:46.702Z,101498.63
2023-05-08T16:22:15.764Z,101504.81
2023-05-08T16:24:44.802Z,101505.47
2023-05-08T16:27:13.838Z,101500.22
2023-05-08T16:29:44.180Z,101512.84
2023-05-08T16:32:13.392Z,101523.16
2023-05-08T16:34:41.906Z,101518.88
2023-05-08T16:37:11.215Z,101515.44
2023-05-08T16:39:40.287Z,101517.53
2023-05-08T16:42:09.902Z,101508.81
2023-05-08T16:44:39.305Z,101503.88
2023-05-08T16:47:10.260Z,101500.25
2023-05-08T16:49:38.803Z,101509.25
2023-05-08T16:52:07.850Z,101502.41
2023-05-08T16:54:36.919Z,101513.53
2023-05-08T16:57:06.563Z,101509.06
2023-05-08T16:59:35.580Z,101514.63
2023-05-08T17:02:04.653Z,101511.00
2023-05-08T17:04:34.656Z,101513.56
2023-05-08T17:07:05.819Z,101518.78
2023-05-08T17:09:35.390Z,101519.72
2023-05-08T17:12:04.758Z,101519.72
2023-05-08T17:14:33.894Z,101520.81
2023-05-08T17:17:02.917Z,101524.41
2023-05-08T17:19:31.676Z,101523.84
2023-05-08T17:22:02.190Z,101523.66
2023-05-08T17:24:32.516Z,101523.66
2023-05-08T17:27:01.813Z,101524.25
2023-05-08T17:29:31.512Z,101533.56
2023-05-08T17:32:00.645Z,101534.28
2023-05-08T17:34:29.273Z,101530.75
2023-05-08T17:36:58.279Z,101532.78
2023-05-08T17:39:28.982Z,101532.09
2023-05-08T17:41:58.058Z,101536.19
2023-05-08T17:44:28.329Z,101536.06
2023-05-08T17:46:57.127Z,101541.88
2023-05-08T17:49:26.822Z,101544.91
2023-05-08T17:51:55.866Z,101543.03
2023-05-08T17:54:27.278Z,101546.91
2023-05-08T17:56:57.900Z,101551.09
2023-05-08T17:59:26.960Z,101549.19
2023-05-08T18:01:55.850Z,101551.03
2023-05-08T18:04:24.938Z,101553.63
2023-05-08T18:06:54.131Z,101551.50
2023-05-08T18:09:23.135Z,101553.47
2023-05-08T18:11:52.154Z,101551.22
2023-05-08T18:14:22.496Z,101560.16
2023-05-08T18:16:51.009Z,101555.38
2023-05-08T18:19:19.937Z,101565.03
2023-05-08T18:21:48.958Z,101564.84
2023-05-08T18:24:21.035Z,101563.72
2023-05-08T18:26:52.361Z,101565.09
2023-05-08T18:29:23.884Z,101569.00
2023-05-08T18:31:54.770Z,101579.03
2023-05-08T18:34:23.819Z,101580.84
2023-05-08T18:36:54.941Z,101582.44
2023-05-08T18:39:25.278Z,101583.63
2023-05-08T18:41:54.360Z,101585.53
2023-05-08T18:44:25.650Z,101586.41
2023-05-08T18:46:54.555Z,101585.59
2023-05-08T18:49:23.924Z,101593.63
2023-05-08T18:51:52.853Z,101592.75
2023-05-08T18:54:23.898Z,101606.31
2023-05-08T18:56:52.988Z,101595.75
2023-05-08T18:59:22.346Z,101599.22
2023-05-08T19:01:52.546Z,101606.88
2023-05-08T19:04:21.476Z,101605.94
2023-05-08T19:06:50.710Z,101604.91
2023-05-08T19:09:20.640Z,101605.25
2023-05-08T19:11:49.824Z,101613.13
2023-05-08T19:14:18.754Z,101613.47
2023-05-08T19:16:47.292Z,101615.22
2023-05-08T19:19:17.722Z,101613.78
2023-05-08T19:21:46.655Z,101613.53
2023-05-08T19:24:19.823Z,101612.56
2023-05-08T19:26:48.852Z,101614.03
2023-05-08T19:29:17.811Z,101608.38
2023-05-08T19:31:46.403Z,101610.91
2023-05-08T19:34:15.523Z,101610.91
2023-05-08T19:36:46.257Z,101616.94
2023-05-08T19:39:15.582Z,101615.00
2023-05-08T19:41:44.700Z,101607.66
2023-05-08T19:44:13.867Z,101613.06
2023-05-08T19:46:44.347Z,101611.88
2023-05-08T19:49:14.508Z,101607.66
2023-05-08T19:51:43.743Z,101606.22
2023-05-08T19:54:14.146Z,101608.00
2023-05-08T19:56:42.831Z,101604.66
2023-05-08T19:59:11.904Z,101609.84
2023-05-08T20:01:40.538Z,101604.06
2023-05-08T20:04:09.760Z,101601.28
2023-05-08T20:06:39.393Z,101597.06
2023-05-08T20:09:08.802Z,101597.91
2023-05-08T20:11:39.268Z,101596.94
2023-05-08T20:14:08.566Z,101600.34
2023-05-08T20:16:37.379Z,101597.66
2023-05-08T20:19:09.549Z,101596.56
2023-05-08T20:21:42.161Z,101591.88
2023-05-08T20:24:11.481Z,101595.19
2023-05-08T20:26:41.911Z,101588.91
2023-05-08T20:29:11.078Z,101594.69
2023-05-08T20:31:41.003Z,101595.97
2023-05-08T20:34:09.791Z,101595.88
2023-05-08T20:36:38.841Z,101593.47
2023-05-08T20:39:07.902Z,101590.81
2023-05-08T20:41:37.561Z,101592.13
2023-05-08T20:44:08.080Z,101596.72
2023-05-08T20:46:37.078Z,101598.53
2023-05-08T20:49:06.216Z,101594.66
2023-05-08T20:51:36.416Z,101600.19
2023-05-08T20:54:05.428Z,101597.53
2023-05-08T20:56:35.889Z,101593.91
2023-05-08T20:59:04.498Z,101598.25
2023-05-08T21:01:34.438Z,101593.47
2023-05-08T21:04:03.085Z,101587.16
2023-05-08T21:06:32.233Z,101588.56
2023-05-08T21:09:01.274Z,101584.38
2023-05-08T21:11:30.244Z,101587.69
2023-05-08T21:13:59.206Z,101587.09
2023-05-08T21:16:27.881Z,101583.59
2023-05-08T21:18:58.620Z,101583.22
2023-05-08T21:21:28.097Z,101585.34
2023-05-08T21:23:57.018Z,101585.22
2023-05-08T21:26:26.010Z,101586.09
2023-05-08T21:28:54.772Z,101578.75
2023-05-08T21:31:23.875Z,101582.06
2023-05-08T21:33:53.204Z,101570.88
2023-05-08T21:36:23.778Z,101585.94
2023-05-08T21:38:53.547Z,101578.22
2023-05-08T21:41:22.943Z,101581.69
2023-05-08T21:43:51.658Z,101577.56
2023-05-08T21:46:20.610Z,101579.47
2023-05-08T21:48:49.625Z,101577.06
2023-05-08T21:51:18.596Z,101581.00
2023-05-08T21:53:49.014Z,101582.81
2023-05-08T21:56:17.775Z,101581.44
2023-05-08T21:58:46.246Z,101581.81
2023-05-08T22:01:15.525Z,101581.69
2023-05-08T22:03:44.629Z,101586.13
2023-05-08T22:06:13.645Z,101576.94
2023-05-08T22:08:42.604Z,101576.34
2023-05-08T22:11:12.958Z,101571.44
2023-05-08T22:13:41.636Z,101577.47
2023-05-08T22:16:10.592Z,101586.56
2023-05-08T22:18:39.639Z,101582.97
2023-05-08T22:21:08.611Z,101578.31
2023-05-08T22:23:37.607Z,101580.84
2023-05-08T22:26:06.547Z,101584.19
2023-05-08T22:28:36.587Z,101582.28
2023-05-08T22:31:06.814Z,101579.09
2023-05-08T22:33:35.913Z,101574.13
2023-05-08T22:36:05.087Z,101574.22
2023-05-08T22:38:34.086Z,101569.88
2023-05-08T22:41:04.012Z,101572.53
2023-05-08T22:43:33.439Z,101575.91
2023-05-08T22:46:04.256Z,101580.44
2023-05-08T22:48:33.464Z,101577.38
2023-05-08T22:51:02.469Z,101576.94
2023-05-08T22:53:31.416Z,101570.16
2023-05-08T22:56:00.285Z,101577.34
2023-05-08T22:58:29.375Z,101563.41
2023-05-08T23:00:59.690Z,101572.06
2023-05-08T23:03:29.870Z,101577.16
2023-05-08T23:05:58.990Z,101572.16
2023-05-08T23:08:27.957Z,101579.53
2023-05-08T23:10:56.890Z,101573.53
2023-05-08T23:13:25.984Z,101569.38
2023-05-08T23:15:55.036Z,101575.31
2023-05-08T23:18:24.440Z,101571.81
2023-05-08T23:20:54.880Z,101568.88
2023-05-08T23:23:23.445Z,101574.59
2023-05-08T23:25:52.345Z,101569.31
2023-05-08T23:28:21.254Z,101571.88
2023-05-08T23:30:50.146Z,101575.34
2023-05-08T23:33:19.873Z,101572.06
2023-05-08T23:35:48.809Z,101571.50
2023-05-08T23:38:19.106Z,101566.63
2023-05-08T23:40:47.654Z,101562.63
2023-05-08T23:43:16.506Z,101562.91
2023-05-08T23:45:45.415Z,101572.69
2023-05-08T23:48:14.411Z,101567.94
2023-05-08T23:50:43.295Z,101567.47
2023-05-08T23:53:12.410Z,101567.00
2023-05-08T23:55:42.427Z,101567.44
2023-05-08T23:58:11.434Z,101570.25
